Osoyoos, Canada
Current Conditions -  °F | °C
As of 2:00 PM on Saturday 20 Dec 2014 (Local Time) from CYYF Reporting Station
Overcast Overcast  
Wind Chill: 32°   Ceiling: 3300
Heat Index: 41°   Visibility: 15mi
Dew Point: 36°   Wind: 17mph
Humidity: 81%   Direction: 160°SSE
Pressure: 29.62"   Gusts: 28mph
Location:  49.03°N, 119.47°W
Report Text: CYYF 202200Z 16015G24KT 15SM FEW018 BKN033 OVC080 05/02 A2962 RMK SC1SC4AC3 SLP041
Loading
Personal Weather Stations






























Interactive Weather Map New forecast layout! Learn more

10-Day Weather Forecast

Advertisements
Track Severe Weather on mobile